Time;durP1;ratioP1;P1;durP2;ratioP2;P2;SDS_P1;SDS_P2;PMS_P1;PMS_P2;Temp;Humidity;BMP_temperature;BMP_pressure;BME280_temperature;BME280_humidity;BME280_pressure;Samples;Min_cycle;Max_cycle;Signal;HPM_P1;HPM_P2
2021/12/02 00:00:35;;;;;;;30.43;17.70;;;9.40;73.60;;;;;;4896804;29;20230;-87
2021/12/02 00:03:04;;;;;;;28.67;16.40;;;9.40;73.50;;;;;;4896806;29;20348;-88
2021/12/02 00:05:31;;;;;;;37.97;19.00;;;9.40;73.40;;;;;;4896612;29;20217;-87
2021/12/02 00:07:59;;;;;;;29.83;21.43;;;9.40;73.20;;;;;;4885823;29;20301;-86
2021/12/02 00:10:30;;;;;;;39.07;18.27;;;9.40;73.10;;;;;;4881201;29;20645;-87
2021/12/02 00:12:58;;;;;;;43.17;21.53;;;9.40;72.20;;;;;;4896410;29;20752;-87
2021/12/02 00:15:32;;;;;;;37.17;20.67;;;9.40;72.60;;;;;;4896293;29;20654;-88
2021/12/02 00:18:19;;;;;;;31.00;18.50;;;9.40;72.80;;;;;;4896476;29;20281;-88
2021/12/02 00:21:04;;;;;;;27.10;18.70;;;9.30;73.00;;;;;;4896572;29;20201;-88
2021/12/02 00:23:35;;;;;;;26.80;19.00;;;9.30;72.70;;;;;;4896063;29;20250;-87
2021/12/02 00:26:10;;;;;;;28.20;19.37;;;9.30;72.20;;;;;;4896102;29;20213;-88
2021/12/02 00:28:39;;;;;;;32.47;20.37;;;9.30;72.10;;;;;;4895898;29;20577;-87
2021/12/02 00:31:07;;;;;;;47.07;23.90;;;9.20;72.30;;;;;;4896363;29;20210;-88
2021/12/02 00:33:34;;;;;;;36.93;19.97;;;9.20;72.50;;;;;;4895989;29;20228;-87
2021/12/02 00:36:02;;;;;;;29.97;20.30;;;9.20;72.70;;;;;;4896188;29;20990;-88
2021/12/02 00:38:30;;;;;;;41.53;19.40;;;9.20;72.90;;;;;;4896018;29;20312;-89
2021/12/02 00:40:59;;;;;;;39.40;20.63;;;9.10;72.90;;;;;;4895158;29;20213;-87
2021/12/02 00:43:29;;;;;;;39.70;20.70;;;9.20;73.10;;;;;;4883349;29;20738;-88
2021/12/02 00:45:56;;;;;;;53.50;26.03;;;9.10;73.00;;;;;;4895091;29;20683;-86
2021/12/02 00:48:23;;;;;;;47.60;22.93;;;9.20;73.20;;;;;;4895277;29;20572;-86
2021/12/02 00:50:50;;;;;;;33.67;22.00;;;9.10;73.20;;;;;;4895884;29;20215;-88
2021/12/02 00:53:20;;;;;;;32.87;25.57;;;9.20;73.10;;;;;;4895689;29;20308;-85
2021/12/02 00:55:49;;;;;;;35.83;20.87;;;9.20;72.80;;;;;;4895321;29;20212;-87
2021/12/02 00:58:19;;;;;;;43.20;22.07;;;9.20;73.20;;;;;;4895770;29;20227;-86
2021/12/02 01:00:52;;;;;;;34.40;21.47;;;9.20;73.10;;;;;;4895708;29;20210;-88
2021/12/02 01:03:20;;;;;;;32.60;19.47;;;9.20;73.00;;;;;;4895893;29;20333;-87
2021/12/02 01:05:47;;;;;;;36.60;22.00;;;9.20;73.10;;;;;;4895466;29;20212;-86
2021/12/02 01:08:14;;;;;;;29.17;23.07;;;9.20;73.10;;;;;;4895493;29;20209;-86
2021/12/02 01:10:42;;;;;;;32.73;19.83;;;9.20;73.10;;;;;;4894843;29;20298;-88
2021/12/02 01:13:09;;;;;;;52.30;21.80;;;9.20;73.10;;;;;;4893817;29;20365;-88
2021/12/02 01:15:37;;;;;;;30.03;18.90;;;9.20;73.30;;;;;;4895403;29;20205;-87
2021/12/02 01:18:05;;;;;;;37.63;24.67;;;9.20;72.40;;;;;;4895266;29;20232;-89
2021/12/02 01:20:33;;;;;;;33.70;20.87;;;9.20;72.10;;;;;;4894980;29;20726;-88
2021/12/02 01:23:02;;;;;;;39.90;21.30;;;9.20;72.00;;;;;;4894171;29;20721;-86
2021/12/02 01:25:31;;;;;;;39.03;22.00;;;9.20;71.90;;;;;;4877001;29;20247;-87
2021/12/02 01:27:59;;;;;;;48.47;21.63;;;9.20;71.80;;;;;;4877288;29;20216;-87
2021/12/02 01:30:27;;;;;;;31.43;20.63;;;9.10;71.50;;;;;;4895257;29;20216;-87
2021/12/02 01:33:01;;;;;;;36.47;27.93;;;9.10;71.10;;;;;;4894754;29;20212;-86
2021/12/02 01:35:31;;;;;;;37.43;22.03;;;9.10;70.30;;;;;;4893551;29;20226;-86
2021/12/02 01:37:58;;;;;;;38.27;22.37;;;9.10;71.20;;;;;;4894861;29;20230;-86
2021/12/02 01:40:26;;;;;;;47.33;24.10;;;9.10;71.10;;;;;;4894923;29;20209;-86
2021/12/02 01:42:55;;;;;;;32.33;21.87;;;9.10;71.10;;;;;;4894823;29;20234;-86
2021/12/02 01:45:24;;;;;;;36.47;25.20;;;9.00;71.10;;;;;;4894762;29;20214;-84
2021/12/02 01:47:53;;;;;;;28.07;20.67;;;9.00;70.90;;;;;;4894354;29;20925;-87
2021/12/02 01:50:24;;;;;;;37.57;22.23;;;9.10;71.00;;;;;;4892591;29;20213;-86
2021/12/02 01:52:57;;;;;;;37.10;23.23;;;9.00;70.70;;;;;;4894574;29;20205;-87
2021/12/02 01:55:25;;;;;;;36.10;24.20;;;9.00;71.10;;;;;;4894254;29;20210;-87
2021/12/02 01:58:00;;;;;;;37.93;23.30;;;9.00;71.70;;;;;;4892448;29;20228;-85
2021/12/02 02:00:32;;;;;;;39.13;24.10;;;9.00;71.70;;;;;;4893128;29;20617;-85
2021/12/02 02:03:00;;;;;;;30.70;21.10;;;8.90;71.80;;;;;;4894381;29;20217;-87
2021/12/02 02:05:27;;;;;;;34.87;24.57;;;8.90;72.10;;;;;;4894315;29;20218;-85
2021/12/02 02:08:02;;;;;;;32.63;25.67;;;8.80;72.20;;;;;;4894361;29;20216;-88
2021/12/02 02:10:30;;;;;;;45.20;23.63;;;8.80;72.40;;;;;;4894166;29;20222;-86
2021/12/02 02:12:59;;;;;;;35.73;24.10;;;8.70;72.60;;;;;;4892760;29;20206;-86
2021/12/02 02:15:27;;;;;;;28.73;19.80;;;8.70;73.20;;;;;;4893691;29;20269;-87
2021/12/02 02:17:57;;;;;;;29.17;24.37;;;8.70;73.00;;;;;;4894782;29;20236;-86
2021/12/02 02:20:27;;;;;;;26.77;22.27;;;8.60;73.20;;;;;;4894164;29;20365;-88
2021/12/02 02:22:54;;;;;;;37.27;23.70;;;8.60;73.30;;;;;;4893470;29;20379;-87
2021/12/02 02:25:21;;;;;;;49.70;25.63;;;8.60;73.50;;;;;;4894474;29;20562;-86
2021/12/02 02:27:48;;;;;;;38.43;22.60;;;8.60;73.70;;;;;;4894004;29;20241;-88
2021/12/02 02:30:15;;;;;;;32.23;22.73;;;8.50;73.80;;;;;;4892182;29;20206;-87
2021/12/02 02:32:42;;;;;;;46.70;28.63;;;8.50;73.90;;;;;;4892627;29;20209;-87
2021/12/02 02:35:10;;;;;;;50.23;27.07;;;8.50;74.10;;;;;;4893214;29;20251;-87
2021/12/02 02:37:38;;;;;;;43.47;29.47;;;8.50;74.10;;;;;;4893479;29;20207;-87
2021/12/02 02:40:09;;;;;;;45.27;24.53;;;8.50;74.10;;;;;;4893284;29;20195;-88
2021/12/02 02:42:37;;;;;;;27.37;23.00;;;8.50;74.00;;;;;;4893993;29;20206;-88
2021/12/02 02:45:04;;;;;;;39.13;23.53;;;8.50;74.00;;;;;;4893672;29;20223;-86
2021/12/02 02:47:32;;;;;;;41.90;25.43;;;8.50;74.10;;;;;;4893078;29;20231;-87
2021/12/02 02:49:59;;;;;;;37.73;25.33;;;8.50;74.00;;;;;;4893304;29;20216;-89
2021/12/02 02:52:26;;;;;;;58.60;26.20;;;8.50;73.60;;;;;;4892135;29;20243;-87
2021/12/02 02:54:55;;;;;;;34.50;22.20;;;8.50;73.60;;;;;;4893589;29;20675;-86
2021/12/02 02:57:25;;;;;;;35.20;23.20;;;8.50;74.00;;;;;;4892831;29;20691;-86
2021/12/02 03:00:07;;;;;;;30.00;26.47;;;8.50;73.80;;;;;;4892960;29;20228;-87
2021/12/02 03:02:40;;;;;;;45.60;25.70;;;8.50;73.70;;;;;;4892698;29;20288;-87
2021/12/02 03:05:21;;;;;;;45.63;26.17;;;8.50;73.50;;;;;;4893074;29;20808;-87
2021/12/02 03:07:52;;;;;;;37.10;25.87;;;8.50;73.40;;;;;;4893767;29;20294;-86
2021/12/02 03:10:27;;;;;;;42.87;25.70;;;8.50;72.80;;;;;;4892745;29;20224;-86
2021/12/02 03:12:58;;;;;;;29.33;25.93;;;8.50;72.90;;;;;;4891986;29;20208;-87
2021/12/02 03:18:10;;;;;;;42.57;27.20;;;8.50;73.60;;;;;;4894054;29;20705;-88
2021/12/02 03:20:37;;;;;;;40.00;27.10;;;8.40;73.70;;;;;;4893159;29;20606;-87
2021/12/02 03:23:04;;;;;;;68.10;27.50;;;8.50;74.00;;;;;;4890867;29;20208;-89
2021/12/02 03:25:33;;;;;;;38.30;25.60;;;8.40;73.70;;;;;;4892153;29;20212;-88
2021/12/02 03:28:00;;;;;;;47.23;30.23;;;8.40;73.70;;;;;;4879312;29;20235;-88
2021/12/02 03:30:28;;;;;;;39.33;24.97;;;8.40;73.20;;;;;;4892617;29;20249;-89
2021/12/02 03:32:54;;;;;;;34.67;21.80;;;8.40;73.00;;;;;;4893558;29;20263;-88
2021/12/02 03:35:21;;;;;;;38.10;23.83;;;8.30;72.80;;;;;;4893167;29;20666;-87
2021/12/02 03:37:48;;;;;;;33.13;22.70;;;8.30;72.60;;;;;;4892827;29;20238;-88
2021/12/02 03:40:16;;;;;;;56.63;29.83;;;8.30;72.40;;;;;;4892225;29;20211;-87
2021/12/02 03:42:51;;;;;;;34.03;25.40;;;8.20;72.60;;;;;;4893613;29;20210;-89
2021/12/02 03:45:22;;;;;;;31.57;22.03;;;8.20;72.60;;;;;;4875129;29;20627;-88
2021/12/02 03:47:50;;;;;;;34.13;21.50;;;8.20;72.70;;;;;;4892158;29;20237;-88
2021/12/02 03:50:17;;;;;;;36.33;25.43;;;8.20;72.70;;;;;;4892548;29;20291;-88
2021/12/02 03:52:44;;;;;;;34.77;26.20;;;8.20;72.30;;;;;;4892306;29;20304;-86
2021/12/02 03:55:11;;;;;;;45.23;25.80;;;8.20;72.10;;;;;;4892423;29;21118;-86
2021/12/02 03:57:38;;;;;;;30.37;25.57;;;8.10;71.70;;;;;;4893124;29;20297;-88
2021/12/02 04:00:08;;;;;;;39.03;25.97;;;8.10;71.80;;;;;;4892306;29;20747;-89
2021/12/02 04:02:35;;;;;;;34.93;28.07;;;8.00;72.00;;;;;;4892104;29;20296;-88
2021/12/02 04:05:03;;;;;;;37.30;30.43;;;8.00;72.10;;;;;;4892679;29;20288;-88
2021/12/02 04:07:30;;;;;;;44.33;29.43;;;8.00;72.10;;;;;;4893296;29;20295;-88
2021/12/02 04:09:58;;;;;;;34.93;25.27;;;7.90;72.30;;;;;;4892576;29;20217;-89
2021/12/02 04:12:32;;;;;;;38.40;27.07;;;7.90;72.50;;;;;;4892750;29;20208;-89
2021/12/02 04:15:02;;;;;;;49.17;25.53;;;7.90;72.50;;;;;;4892570;29;20254;-88
2021/12/02 04:17:41;;;;;;;35.87;27.33;;;7.90;72.50;;;;;;4891573;29;20209;-89
2021/12/02 04:20:11;;;;;;;41.03;27.70;;;7.80;72.70;;;;;;4891978;29;20231;-90
2021/12/02 04:22:38;;;;;;;40.00;28.93;;;7.80;73.10;;;;;;4896155;29;20780;-89
2021/12/02 04:25:07;;;;;;;39.47;26.10;;;7.80;73.40;;;;;;4894149;29;20248;-89
2021/12/02 04:27:34;;;;;;;39.77;24.83;;;7.80;73.40;;;;;;4896039;29;20292;-88
2021/12/02 04:30:01;;;;;;;51.43;27.93;;;7.90;73.70;;;;;;4895123;29;20288;-88
2021/12/02 04:32:29;;;;;;;32.17;26.57;;;7.80;73.70;;;;;;4895204;29;20249;-89
2021/12/02 04:34:56;;;;;;;40.23;26.77;;;7.90;73.60;;;;;;4895769;29;20270;-88
2021/12/02 04:37:23;;;;;;;57.33;28.03;;;7.80;73.30;;;;;;4896103;29;20211;-88
2021/12/02 04:39:51;;;;;;;37.90;28.43;;;7.80;72.90;;;;;;4895522;29;20314;-89
2021/12/02 04:42:18;;;;;;;33.40;28.40;;;7.80;72.90;;;;;;4895579;29;20208;-90
2021/12/02 04:44:45;;;;;;;42.67;29.60;;;7.80;72.20;;;;;;4895789;29;20322;-90
2021/12/02 04:47:12;;;;;;;36.70;26.33;;;7.90;72.50;;;;;;4896276;29;20224;-89
2021/12/02 04:49:41;;;;;;;27.60;25.00;;;7.90;72.00;;;;;;4896816;29;20241;-91
2021/12/02 04:52:08;;;;;;;47.53;24.93;;;7.90;71.70;;;;;;4895766;29;20235;-88
2021/12/02 04:54:35;;;;;;;34.00;27.23;;;7.90;71.50;;;;;;4895575;29;20306;-88
2021/12/02 04:57:02;;;;;;;29.77;25.77;;;7.90;71.40;;;;;;4896383;29;20243;-88
2021/12/02 04:59:29;;;;;;;39.80;30.03;;;7.90;71.20;;;;;;4895727;29;20347;-88
2021/12/02 05:01:56;;;;;;;45.17;28.00;;;7.90;71.40;;;;;;4895050;29;20201;-88
2021/12/02 05:04:23;;;;;;;48.17;28.83;;;7.90;72.00;;;;;;4895261;29;20653;-87
2021/12/02 05:06:51;;;;;;;33.97;27.77;;;7.90;71.30;;;;;;4894769;29;20293;-87
2021/12/02 05:09:18;;;;;;;29.47;24.00;;;7.80;71.10;;;;;;4896032;29;20301;-88
2021/12/02 05:11:45;;;;;;;45.37;28.40;;;7.90;71.40;;;;;;4893877;29;20249;-88
2021/12/02 05:14:12;;;;;;;36.67;29.13;;;7.90;71.10;;;;;;4894382;29;20308;-88
2021/12/02 05:16:40;;;;;;;42.43;29.50;;;7.90;70.50;;;;;;4895463;29;20286;-87
2021/12/02 05:19:07;;;;;;;39.40;25.47;;;7.80;70.80;;;;;;4895510;29;20322;-89
2021/12/02 05:21:34;;;;;;;32.77;26.57;;;7.80;71.00;;;;;;4895448;29;20298;-88
2021/12/02 05:24:03;;;;;;;31.40;25.47;;;7.80;71.40;;;;;;4895215;29;20249;-89
2021/12/02 05:26:30;;;;;;;39.73;27.67;;;7.80;71.40;;;;;;4894308;29;20289;-89
2021/12/02 05:28:57;;;;;;;45.47;25.33;;;7.80;70.80;;;;;;4895145;29;20257;-87
2021/12/02 05:31:24;;;;;;;57.33;26.97;;;7.80;70.70;;;;;;4895292;29;20255;-89
2021/12/02 05:33:52;;;;;;;44.83;25.20;;;7.80;70.80;;;;;;4887127;29;20632;-88
2021/12/02 05:36:19;;;;;;;31.20;27.07;;;7.80;70.90;;;;;;4882998;29;20213;-87
2021/12/02 05:38:46;;;;;;;35.47;28.70;;;7.80;71.00;;;;;;4895232;29;20290;-88
2021/12/02 05:41:15;;;;;;;49.63;29.63;;;7.80;70.90;;;;;;4894880;29;20237;-85
2021/12/02 05:43:42;;;;;;;40.23;26.93;;;7.80;70.70;;;;;;4894401;29;20316;-89
2021/12/02 05:46:10;;;;;;;44.10;29.30;;;7.80;70.60;;;;;;4894759;29;20216;-86
2021/12/02 05:48:37;;;;;;;42.27;29.57;;;7.80;70.60;;;;;;4894652;29;20689;-87
2021/12/02 05:51:04;;;;;;;33.97;29.77;;;7.80;71.50;;;;;;4895108;29;20577;-88
2021/12/02 05:53:30;;;;;;;35.30;30.90;;;7.80;70.30;;;;;;4894864;29;20257;-87
2021/12/02 05:55:57;;;;;;;36.80;31.17;;;7.80;69.40;;;;;;4894618;29;20239;-88
2021/12/02 05:58:26;;;;;;;46.13;29.73;;;7.70;69.00;;;;;;4895614;29;20302;-87
2021/12/02 06:00:53;;;;;;;42.60;31.77;;;7.80;69.20;;;;;;4894648;29;20325;-87
2021/12/02 06:03:20;;;;;;;42.40;29.53;;;7.70;69.10;;;;;;4893033;29;20590;-87
2021/12/02 06:05:47;;;;;;;35.30;31.03;;;7.70;68.70;;;;;;4892733;29;21122;-86
2021/12/02 06:08:15;;;;;;;38.37;30.00;;;7.80;68.80;;;;;;4894591;29;20233;-85
2021/12/02 06:10:43;;;;;;;59.90;32.53;;;7.70;69.10;;;;;;4888616;29;20248;-86
2021/12/02 06:13:10;;;;;;;43.60;30.37;;;7.70;69.00;;;;;;4891628;29;20235;-88
2021/12/02 06:15:38;;;;;;;41.97;27.20;;;7.70;69.20;;;;;;4890700;29;20220;-87
2021/12/02 06:18:05;;;;;;;38.77;28.13;;;7.70;69.10;;;;;;4886741;29;20215;-89
2021/12/02 06:20:32;;;;;;;45.93;30.27;;;7.70;69.10;;;;;;4891819;29;20789;-86
2021/12/02 06:22:59;;;;;;;40.33;26.50;;;7.70;68.80;;;;;;4892588;29;20741;-87
2021/12/02 06:28:10;;;;;;;51.57;35.63;;;7.70;68.80;;;;;;4890883;29;20235;-87
2021/12/02 06:30:39;;;;;;;47.17;30.53;;;7.70;68.30;;;;;;4886154;29;21228;-86
2021/12/02 06:33:06;;;;;;;37.53;32.00;;;7.70;68.70;;;;;;4875806;29;20300;-88
2021/12/02 06:35:33;;;;;;;43.53;32.23;;;7.70;68.50;;;;;;4886751;29;20304;-86
2021/12/02 06:38:00;;;;;;;54.53;31.07;;;7.70;67.80;;;;;;4894517;29;20284;-86
2021/12/02 06:40:28;;;;;;;42.03;29.00;;;7.70;67.80;;;;;;4901343;29;20393;-86
2021/12/02 06:42:55;;;;;;;43.23;30.83;;;7.70;67.80;;;;;;4911156;29;20294;-86
2021/12/02 06:45:23;;;;;;;41.97;33.87;;;7.70;68.70;;;;;;4892960;29;20242;-86
2021/12/02 06:47:52;;;;;;;37.67;33.87;;;7.70;69.30;;;;;;4896569;29;20234;-86
2021/12/02 06:50:21;;;;;;;31.47;27.90;;;7.60;69.60;;;;;;4911183;29;20211;-87
2021/12/02 06:52:49;;;;;;;39.33;33.93;;;7.60;69.80;;;;;;4907471;29;20297;-87
2021/12/02 06:55:17;;;;;;;73.03;36.83;;;7.50;69.70;;;;;;4910272;29;20645;-86
2021/12/02 06:57:44;;;;;;;52.70;35.37;;;7.50;69.50;;;;;;4905039;29;20287;-86
2021/12/02 07:00:14;;;;;;;40.23;37.00;;;7.40;69.40;;;;;;4890782;29;20229;-87
2021/12/02 07:02:42;;;;;;;48.47;35.30;;;7.30;69.70;;;;;;4907601;29;20701;-86
2021/12/02 07:05:14;;;;;;;40.30;35.87;;;7.20;70.00;;;;;;4913010;29;20226;-87
2021/12/02 07:07:41;;;;;;;36.73;32.03;;;7.20;70.40;;;;;;4909713;29;20324;-87
2021/12/02 07:10:10;;;;;;;42.13;34.30;;;7.10;70.70;;;;;;4908844;29;20295;-87
2021/12/02 07:12:39;;;;;;;38.30;29.07;;;7.10;71.00;;;;;;4911483;29;20331;-86
2021/12/02 07:15:11;;;;;;;44.43;32.77;;;7.00;71.20;;;;;;4912185;29;20265;-88
2021/12/02 07:17:38;;;;;;;36.73;33.13;;;7.00;71.50;;;;;;4890857;29;20211;-86
2021/12/02 07:20:06;;;;;;;34.87;29.90;;;7.00;71.80;;;;;;4892758;29;20706;-87
2021/12/02 07:22:35;;;;;;;49.67;33.17;;;6.90;72.10;;;;;;4907393;29;20631;-86
2021/12/02 07:25:02;;;;;;;37.70;33.13;;;6.90;73.00;;;;;;4912696;29;20315;-85
2021/12/02 07:27:29;;;;;;;43.20;38.47;;;6.90;72.40;;;;;;4910323;29;20236;-87
2021/12/02 07:29:55;;;;;;;43.30;33.70;;;7.00;72.50;;;;;;4904976;29;20220;-86
2021/12/02 07:32:26;;;;;;;39.10;32.97;;;6.90;72.30;;;;;;4906605;29;20870;-86
2021/12/02 07:34:56;;;;;;;43.63;31.83;;;6.90;71.30;;;;;;4912733;29;20361;-86
2021/12/02 07:37:24;;;;;;;44.97;33.67;;;6.90;71.00;;;;;;4907550;29;20249;-86
2021/12/02 07:39:53;;;;;;;58.00;32.30;;;6.90;70.70;;;;;;4907075;29;20220;-86
2021/12/02 07:42:20;;;;;;;33.83;30.20;;;6.90;70.70;;;;;;4910398;29;20329;-86
2021/12/02 07:44:47;;;;;;;40.50;31.10;;;7.00;70.70;;;;;;4910901;29;20251;-87
2021/12/02 07:47:14;;;;;;;45.93;32.17;;;7.00;70.00;;;;;;4909983;29;20214;-86
2021/12/02 07:49:42;;;;;;;49.73;35.57;;;7.00;69.90;;;;;;4895718;29;20290;-87
2021/12/02 07:52:09;;;;;;;40.57;33.10;;;7.00;69.50;;;;;;4906031;29;20288;-86
2021/12/02 07:54:40;;;;;;;59.17;35.70;;;7.00;69.50;;;;;;4910955;29;20592;-86
2021/12/02 07:57:10;;;;;;;69.07;34.03;;;7.00;69.60;;;;;;4912274;29;20272;-87
2021/12/02 07:59:39;;;;;;;53.57;34.53;;;7.10;68.90;;;;;;4915714;29;20724;-85
2021/12/02 08:02:06;;;;;;;55.70;35.17;;;7.10;68.60;;;;;;4912748;29;20301;-86
2021/12/02 08:04:33;;;;;;;46.97;33.60;;;7.10;69.00;;;;;;4899632;29;20324;-86
2021/12/02 08:07:00;;;;;;;46.30;38.93;;;7.10;68.30;;;;;;4900283;29;20236;-86
2021/12/02 08:09:26;;;;;;;38.70;33.90;;;7.10;68.20;;;;;;4894013;29;20280;-87
2021/12/02 08:11:58;;;;;;;37.10;31.97;;;7.10;67.70;;;;;;4914810;29;20762;-86
2021/12/02 08:14:27;;;;;;;35.03;27.03;;;7.10;68.30;;;;;;4915564;29;20290;-86
2021/12/02 08:16:54;;;;;;;38.43;34.40;;;7.20;68.00;;;;;;4907157;29;20248;-86
2021/12/02 08:19:21;;;;;;;53.80;31.77;;;7.20;67.60;;;;;;4913471;29;20249;-86
2021/12/02 08:21:48;;;;;;;42.20;38.00;;;7.20;67.70;;;;;;4902058;29;20206;-87
2021/12/02 08:24:15;;;;;;;39.07;35.03;;;7.20;67.50;;;;;;4912264;29;20266;-86
2021/12/02 08:26:41;;;;;;;36.27;32.30;;;7.20;67.10;;;;;;4914841;29;20256;-86
2021/12/02 08:29:09;;;;;;;39.30;35.07;;;7.20;67.20;;;;;;4913201;29;20622;-86
2021/12/02 08:31:37;;;;;;;45.73;37.97;;;7.20;67.30;;;;;;4914653;29;20633;-84
2021/12/02 08:34:04;;;;;;;55.97;34.57;;;7.20;67.10;;;;;;4900941;29;20675;-86
2021/12/02 08:36:41;;;;;;;45.33;36.77;;;7.30;66.90;;;;;;4911077;29;20222;-87
2021/12/02 08:39:11;;;;;;;33.83;30.13;;;7.30;67.00;;;;;;4913706;29;20571;-85
2021/12/02 08:41:43;;;;;;;42.00;31.57;;;7.30;67.20;;;;;;4909782;29;20245;-84
2021/12/02 08:44:10;;;;;;;40.10;32.60;;;7.30;67.00;;;;;;4913707;29;20314;-85
2021/12/02 08:46:39;;;;;;;46.47;33.27;;;7.30;67.40;;;;;;4898903;29;20310;-85
2021/12/02 08:49:06;;;;;;;57.40;36.77;;;7.30;67.10;;;;;;4889360;29;20208;-85
2021/12/02 08:51:33;;;;;;;37.73;33.80;;;7.30;67.30;;;;;;4914188;29;20288;-86
2021/12/02 08:53:59;;;;;;;41.33;34.10;;;7.40;67.80;;;;;;4914000;29;20269;-86
2021/12/02 08:56:26;;;;;;;34.13;30.07;;;7.40;67.50;;;;;;4903200;29;20291;-86
2021/12/02 08:58:53;;;;;;;34.53;30.70;;;7.40;67.70;;;;;;4912063;29;20289;-85
2021/12/02 09:01:20;;;;;;;42.77;32.20;;;7.50;67.80;;;;;;4913805;29;20324;-84
2021/12/02 09:03:49;;;;;;;38.17;32.90;;;7.50;68.00;;;;;;4919081;23;20306;-85
2021/12/02 09:06:21;;;;;;;46.10;32.13;;;7.50;68.10;;;;;;4907618;29;20690;-85
2021/12/02 09:08:48;;;;;;;49.43;36.43;;;7.60;68.10;;;;;;4895872;29;20220;-85
2021/12/02 09:11:15;;;;;;;38.00;27.23;;;7.60;67.70;;;;;;4894945;29;20686;-83
2021/12/02 09:13:42;;;;;;;76.03;34.70;;;7.60;67.90;;;;;;4887230;29;20356;-89
2021/12/02 09:16:09;;;;;;;80.17;35.37;;;7.60;67.80;;;;;;4872769;29;20286;-86
2021/12/02 09:18:36;;;;;;;61.80;32.60;;;7.60;67.70;;;;;;4867076;29;20299;-85
2021/12/02 09:21:04;;;;;;;44.47;36.77;;;7.70;67.90;;;;;;4872651;29;20611;-81
2021/12/02 09:23:31;;;;;;;40.83;33.03;;;7.70;67.80;;;;;;4876559;29;20316;-85
2021/12/02 09:25:58;;;;;;;43.83;32.17;;;7.70;68.20;;;;;;4875605;29;20216;-85
2021/12/02 09:28:26;;;;;;;54.17;36.30;;;7.70;68.10;;;;;;4875733;29;20265;-86
2021/12/02 09:30:54;;;;;;;55.50;35.70;;;7.80;67.90;;;;;;4879471;29;20237;-84
2021/12/02 09:33:21;;;;;;;42.97;29.40;;;7.80;67.90;;;;;;4879726;29;20226;-85
2021/12/02 09:35:47;;;;;;;62.97;38.13;;;7.80;67.90;;;;;;4879822;29;20892;-86
2021/12/02 09:38:16;;;;;;;37.70;32.17;;;7.90;67.70;;;;;;4881003;29;20288;-86
2021/12/02 09:40:44;;;;;;;39.70;30.77;;;7.90;67.90;;;;;;4883110;29;20348;-87
2021/12/02 09:43:12;;;;;;;50.50;31.83;;;7.90;68.00;;;;;;4882552;29;20208;-84
2021/12/02 09:45:40;;;;;;;74.90;32.27;;;7.90;68.40;;;;;;4885599;29;20205;-86
2021/12/02 09:48:08;;;;;;;55.40;31.60;;;7.90;68.40;;;;;;4875649;29;20632;-84
2021/12/02 09:50:38;;;;;;;80.20;35.37;;;7.90;68.60;;;;;;4874544;29;20674;-87
2021/12/02 09:53:20;;;;;;;157.33;43.27;;;7.90;68.90;;;;;;4898691;23;20213;-87
2021/12/02 09:55:52;;;;;;;55.93;32.97;;;8.00;69.00;;;;;;4875557;29;20242;-85
2021/12/02 09:58:22;;;;;;;38.43;30.60;;;7.90;69.10;;;;;;4888714;29;20218;-86
2021/12/02 10:00:55;;;;;;;57.97;32.50;;;8.00;69.60;;;;;;4874397;29;20319;-85
2021/12/02 10:03:28;;;;;;;37.17;30.93;;;7.90;69.70;;;;;;4875185;29;20243;-85
2021/12/02 10:06:06;;;;;;;37.63;29.47;;;7.90;69.70;;;;;;4874841;29;20231;-85
2021/12/02 10:08:38;;;;;;;45.23;34.63;;;7.90;70.00;;;;;;4875061;29;20245;-85
2021/12/02 10:11:07;;;;;;;38.80;29.03;;;7.90;70.30;;;;;;4875029;29;20234;-86
2021/12/02 10:13:43;;;;;;;74.70;33.40;;;7.90;70.60;;;;;;4871721;29;20295;-85
2021/12/02 10:16:17;;;;;;;40.93;29.43;;;7.90;70.70;;;;;;4860074;29;20229;-86
2021/12/02 10:18:59;;;;;;;48.60;30.67;;;7.90;71.00;;;;;;4863836;29;20262;-87
2021/12/02 10:21:30;;;;;;;34.80;30.63;;;7.90;71.20;;;;;;4875511;29;20710;-86
2021/12/02 10:24:03;;;;;;;33.67;27.23;;;7.90;71.20;;;;;;4874859;29;20313;-86
2021/12/02 10:26:37;;;;;;;36.57;33.37;;;8.00;71.40;;;;;;4864566;29;20790;-87
2021/12/02 10:29:12;;;;;;;61.20;31.00;;;7.90;71.20;;;;;;4874362;29;20208;-87
2021/12/02 10:31:39;;;;;;;45.17;29.03;;;7.90;71.10;;;;;;4875180;29;20282;-86
2021/12/02 10:34:08;;;;;;;69.40;33.70;;;8.00;71.20;;;;;;4864674;29;20244;-82
2021/12/02 10:36:39;;;;;;;45.97;27.47;;;8.00;71.10;;;;;;4874126;29;20232;-86
2021/12/02 10:39:12;;;;;;;52.97;29.70;;;8.00;70.80;;;;;;4872311;29;20241;-86
2021/12/02 10:41:43;;;;;;;56.37;31.73;;;8.00;70.90;;;;;;4869081;29;20322;-86
2021/12/02 10:44:23;;;;;;;82.00;31.77;;;8.00;71.20;;;;;;4860690;29;20232;-86
2021/12/02 10:47:09;;;;;;;47.90;31.47;;;8.00;71.30;;;;;;4869323;29;20221;-86
2021/12/02 10:49:42;;;;;;;80.97;29.03;;;8.10;71.60;;;;;;4866229;29;20297;-86
2021/12/02 10:52:10;;;;;;;34.10;25.40;;;8.10;72.10;;;;;;4862532;29;20221;-86
2021/12/02 10:54:44;;;;;;;41.43;29.03;;;8.10;71.80;;;;;;4874022;29;20907;-86
2021/12/02 10:57:13;;;;;;;53.53;26.77;;;8.10;71.70;;;;;;4871529;29;20218;-86
2021/12/02 10:59:46;;;;;;;43.13;27.70;;;8.10;71.80;;;;;;4866942;29;20308;-86
2021/12/02 11:02:24;;;;;;;51.63;31.53;;;8.10;72.00;;;;;;4864672;29;20291;-86
2021/12/02 11:04:54;;;;;;;43.93;30.30;;;8.00;72.00;;;;;;4871633;29;20644;-86
2021/12/02 11:07:24;;;;;;;92.67;33.30;;;8.10;72.20;;;;;;4870064;29;20205;-85
2021/12/02 11:09:55;;;;;;;36.90;28.43;;;8.00;72.30;;;;;;4874073;29;20215;-86
2021/12/02 11:12:25;;;;;;;81.37;32.10;;;8.00;72.50;;;;;;4869857;29;20310;-86
2021/12/02 11:14:55;;;;;;;51.47;34.37;;;8.00;72.60;;;;;;4870475;29;20258;-86
2021/12/02 11:17:23;;;;;;;68.23;32.87;;;8.00;72.90;;;;;;4857593;29;20299;-86
2021/12/02 11:19:52;;;;;;;63.67;30.00;;;8.00;73.10;;;;;;4859063;29;20294;-87
2021/12/02 11:22:21;;;;;;;54.37;31.57;;;8.00;73.50;;;;;;4867932;29;20281;-87
2021/12/02 11:24:51;;;;;;;51.33;30.70;;;8.00;73.60;;;;;;4865119;29;20362;-86
2021/12/02 11:27:22;;;;;;;95.50;32.23;;;8.00;73.70;;;;;;4861603;29;20297;-85
2021/12/02 11:29:51;;;;;;;33.83;30.37;;;7.90;73.80;;;;;;4872135;29;20676;-85
2021/12/02 11:32:35;;;;;;;38.83;26.23;;;7.90;74.10;;;;;;4868940;29;20241;-85
2021/12/02 11:35:05;;;;;;;58.63;28.47;;;7.90;74.40;;;;;;4921528;23;20326;-85
2021/12/02 11:37:33;;;;;;;61.27;30.87;;;7.90;74.50;;;;;;4913659;29;20300;-85
2021/12/02 11:40:04;;;;;;;52.00;29.07;;;7.90;74.50;;;;;;4910666;29;20260;-85
2021/12/02 11:42:33;;;;;;;54.87;29.93;;;7.90;74.30;;;;;;4896460;29;20280;-86
2021/12/02 11:45:00;;;;;;;44.60;35.40;;;8.00;74.30;;;;;;5043709;23;20244;-87
2021/12/02 11:47:27;;;;;;;41.63;28.90;;;8.00;74.20;;;;;;4897821;29;20242;-86
2021/12/02 11:49:54;;;;;;;34.03;27.17;;;8.00;74.10;;;;;;4908282;29;20919;-85
2021/12/02 11:52:21;;;;;;;55.60;28.60;;;8.00;74.20;;;;;;4915286;29;20243;-85
2021/12/02 11:57:34;;;;;;;31.67;28.03;;;8.10;74.00;;;;;;4887771;29;20219;-85
2021/12/02 12:00:02;;;;;;;53.03;28.87;;;8.10;74.00;;;;;;4896407;29;20255;-85
2021/12/02 12:02:29;;;;;;;34.00;25.00;;;8.10;74.10;;;;;;4903937;29;20323;-86
2021/12/02 12:05:00;;;;;;;47.07;29.77;;;8.10;73.80;;;;;;4908025;29;20239;-85
2021/12/02 12:07:39;;;;;;;38.77;27.53;;;8.10;73.60;;;;;;4907120;29;20213;-86
2021/12/02 12:10:28;;;;;;;50.67;30.07;;;8.10;73.40;;;;;;4896605;29;20289;-86
2021/12/02 12:13:12;;;;;;;38.70;28.03;;;8.00;73.10;;;;;;4901771;29;20243;-83
2021/12/02 12:15:44;;;;;;;42.53;32.50;;;8.00;73.10;;;;;;4909322;29;20617;-82
2021/12/02 12:18:18;;;;;;;41.37;30.70;;;8.00;73.20;;;;;;4900843;29;20676;-87
2021/12/02 12:20:57;;;;;;;40.13;29.73;;;8.00;73.30;;;;;;4915522;29;20242;-87
2021/12/02 12:23:34;;;;;;;34.27;28.27;;;8.00;74.30;;;;;;4898186;29;20308;-87
2021/12/02 12:26:19;;;;;;;36.33;31.27;;;8.00;73.50;;;;;;4896718;29;20211;-88
2021/12/02 12:29:29;;;;;;;38.67;29.03;;;7.90;73.50;;;;;;4896948;29;20288;-87
2021/12/02 12:38:04;;;;;;;36.13;28.70;;;8.00;74.30;;;;;;4896840;29;20205;-88
2021/12/02 12:40:50;;;;;;;44.20;28.73;;;8.00;74.30;;;;;;4913998;29;20230;-88
2021/12/02 12:43:38;;;;;;;45.50;27.67;;;8.10;74.00;;;;;;4898084;29;20219;-88
2021/12/02 12:46:24;;;;;;;49.77;28.23;;;8.20;73.80;;;;;;4899152;29;20209;-88
2021/12/02 12:48:55;;;;;;;39.93;29.13;;;8.30;73.40;;;;;;4896524;29;20240;-87
2021/12/02 12:51:32;;;;;;;31.53;24.43;;;8.30;72.60;;;;;;4915096;29;20244;-87
2021/12/02 12:54:01;;;;;;;54.57;29.23;;;8.40;71.90;;;;;;4904219;29;20694;-87
2021/12/02 12:56:35;;;;;;;34.73;26.00;;;8.40;71.40;;;;;;4896329;29;20245;-87
2021/12/02 12:59:08;;;;;;;30.20;21.00;;;8.40;71.30;;;;;;4896041;29;20259;-87
2021/12/02 13:01:37;;;;;;;44.67;24.27;;;8.40;71.20;;;;;;4895786;29;20236;-88